Time;durP1;ratioP1;P1;durP2;ratioP2;P2;SDS_P1;SDS_P2;PMS_P1;PMS_P2;Temp;Humidity;BMP_temperature;BMP_pressure;BME280_temperature;BME280_humidity;BME280_pressure;Samples;Min_cycle;Max_cycle;Signal;HPM_P1;HPM_P2
2023/04/05 00:00:44;;;;;;;7.40;3.60;;;3.90;99.90;;;;;;4791199;29;20059;-79
2023/04/05 00:03:11;;;;;;;8.93;4.50;;;3.80;99.90;;;;;;4791164;29;20059;-79
2023/04/05 00:05:38;;;;;;;8.27;4.22;;;3.80;99.90;;;;;;4791573;30;20400;-80
2023/04/05 00:08:12;;;;;;;10.02;4.47;;;3.70;99.90;;;;;;4791021;29;20106;-80
2023/04/05 00:10:38;;;;;;;9.18;3.95;;;3.70;99.90;;;;;;4791027;30;20059;-79
2023/04/05 00:13:04;;;;;;;9.15;4.07;;;3.80;99.90;;;;;;4790940;30;20058;-79
2023/04/05 00:15:33;;;;;;;9.05;4.45;;;3.80;99.90;;;;;;4775080;30;20051;-79
2023/04/05 00:17:59;;;;;;;9.32;3.80;;;3.80;99.90;;;;;;4774765;30;20112;-79
2023/04/05 00:20:24;;;;;;;8.45;3.88;;;3.80;99.90;;;;;;4791371;30;20151;-79
2023/04/05 00:22:50;;;;;;;8.37;4.50;;;3.80;99.90;;;;;;4790861;29;20055;-80
2023/04/05 00:25:16;;;;;;;8.27;3.90;;;3.80;99.90;;;;;;4791257;29;20054;-79
2023/04/05 00:27:43;;;;;;;7.00;3.50;;;3.80;99.90;;;;;;4790350;29;20051;-79
2023/04/05 00:30:09;;;;;;;12.48;4.35;;;3.80;99.90;;;;;;4775142;30;20116;-80
2023/04/05 00:32:35;;;;;;;8.90;4.03;;;3.70;99.90;;;;;;4790598;29;20055;-80
2023/04/05 00:35:01;;;;;;;8.27;4.60;;;3.70;99.90;;;;;;4759897;30;20382;-80
2023/04/05 00:37:27;;;;;;;13.67;3.93;;;3.70;99.90;;;;;;4790540;30;20380;-79
2023/04/05 00:39:52;;;;;;;10.07;4.20;;;3.70;99.90;;;;;;4790707;30;20059;-80
2023/04/05 00:42:18;;;;;;;9.07;3.83;;;3.60;99.90;;;;;;4791247;30;20406;-80
2023/04/05 00:44:44;;;;;;;8.50;4.50;;;3.60;99.90;;;;;;4774549;30;20055;-80
2023/04/05 00:47:10;;;;;;;9.60;4.10;;;3.60;99.90;;;;;;4774392;30;20063;-80
2023/04/05 00:49:37;;;;;;;7.80;3.93;;;3.50;99.90;;;;;;4790492;29;20509;-80
2023/04/05 00:52:03;;;;;;;9.10;4.13;;;3.50;99.90;;;;;;4790390;30;20055;-80
2023/04/05 00:54:29;;;;;;;10.47;4.40;;;3.50;99.90;;;;;;4774093;30;20374;-80
2023/04/05 00:56:58;;;;;;;8.82;4.22;;;3.50;99.90;;;;;;4790222;30;20501;-80
2023/04/05 00:59:30;;;;;;;9.60;4.43;;;3.50;99.90;;;;;;4789890;30;20564;-80
2023/04/05 01:02:17;;;;;;;10.50;4.20;;;3.50;99.90;;;;;;4790173;30;20063;-80
2023/04/05 01:04:48;;;;;;;9.23;4.72;;;3.40;99.90;;;;;;4790210;30;20066;-80
2023/04/05 01:07:45;;;;;;;9.05;4.25;;;3.40;99.90;;;;;;4790151;30;20119;-80
2023/04/05 01:10:15;;;;;;;11.63;4.90;;;3.30;99.90;;;;;;4774555;30;20229;-79
2023/04/05 01:12:41;;;;;;;10.18;4.50;;;3.30;99.90;;;;;;4789972;30;20062;-79
2023/04/05 01:15:07;;;;;;;9.43;4.10;;;3.30;99.90;;;;;;4789967;30;20489;-78
2023/04/05 01:17:37;;;;;;;8.57;4.10;;;3.30;99.90;;;;;;4789856;30;20055;-79
2023/04/05 01:20:13;;;;;;;9.18;4.30;;;3.30;99.90;;;;;;4774454;30;20481;-79
2023/04/05 01:23:14;;;;;;;9.82;4.57;;;3.30;99.90;;;;;;4790071;30;20559;-78
2023/04/05 01:25:43;;;;;;;9.23;3.90;;;3.30;99.90;;;;;;4789821;30;20055;-79
2023/04/05 01:28:37;;;;;;;10.25;4.72;;;3.30;99.90;;;;;;4789720;30;20051;-79
2023/04/05 01:31:08;;;;;;;8.70;4.13;;;3.30;99.90;;;;;;4773841;30;20529;-79
2023/04/05 01:33:36;;;;;;;10.07;4.38;;;3.20;99.90;;;;;;4789671;30;20055;-79
2023/04/05 01:36:14;;;;;;;10.77;4.57;;;3.30;99.90;;;;;;4789568;30;20055;-78
2023/04/05 01:38:41;;;;;;;11.48;4.60;;;3.20;99.90;;;;;;4789056;29;20392;-79
2023/04/05 01:41:07;;;;;;;10.30;4.53;;;3.20;99.90;;;;;;4773815;30;20063;-78
2023/04/05 01:43:32;;;;;;;8.40;4.40;;;3.30;99.90;;;;;;4789920;30;20070;-78
2023/04/05 01:45:58;;;;;;;9.67;4.03;;;3.20;99.90;;;;;;4789419;30;20068;-78
2023/04/05 01:48:24;;;;;;;10.20;5.03;;;3.20;99.90;;;;;;4773856;30;20130;-78
2023/04/05 01:50:50;;;;;;;10.27;4.80;;;3.20;99.90;;;;;;4789245;29;20062;-78
2023/04/05 01:53:16;;;;;;;10.50;4.43;;;3.10;99.90;;;;;;4789063;30;20446;-78
2023/04/05 01:55:41;;;;;;;13.13;5.30;;;3.10;99.90;;;;;;4772952;30;20083;-78
2023/04/05 01:58:07;;;;;;;12.73;4.80;;;3.00;99.90;;;;;;4788916;29;20102;-78
2023/04/05 02:00:33;;;;;;;9.25;4.60;;;3.00;99.90;;;;;;4788458;30;20094;-79
2023/04/05 02:02:59;;;;;;;9.07;4.93;;;3.00;99.90;;;;;;4788658;29;20095;-79
2023/04/05 02:05:25;;;;;;;10.77;4.37;;;3.00;99.90;;;;;;4758537;30;20549;-79
2023/04/05 02:07:50;;;;;;;10.30;4.77;;;3.00;99.90;;;;;;4788341;30;20074;-80
2023/04/05 02:10:17;;;;;;;10.40;4.80;;;3.00;99.90;;;;;;4788327;30;20187;-79
2023/04/05 02:12:43;;;;;;;9.05;4.40;;;2.90;99.90;;;;;;4788766;30;20104;-80
2023/04/05 02:15:09;;;;;;;10.85;4.80;;;2.90;99.90;;;;;;4788305;30;20055;-79
2023/04/05 02:17:38;;;;;;;8.80;4.90;;;2.90;99.90;;;;;;4773122;30;20063;-79
2023/04/05 02:20:09;;;;;;;8.05;5.07;;;2.90;99.90;;;;;;4788085;30;20052;-79
2023/04/05 02:22:35;;;;;;;10.63;5.18;;;2.80;99.90;;;;;;4788142;30;20058;-79
2023/04/05 02:25:02;;;;;;;8.32;4.43;;;2.80;99.90;;;;;;4788372;30;20540;-79
2023/04/05 02:27:28;;;;;;;9.90;4.57;;;2.70;99.90;;;;;;4757330;30;20186;-79
2023/04/05 02:29:56;;;;;;;10.65;4.82;;;2.80;99.90;;;;;;4788485;30;20373;-79
2023/04/05 02:32:22;;;;;;;9.43;4.90;;;2.80;99.90;;;;;;4788048;30;20055;-79
2023/04/05 02:34:49;;;;;;;10.20;4.53;;;2.80;99.90;;;;;;4787967;29;20055;-79
2023/04/05 02:37:15;;;;;;;12.77;5.03;;;2.70;99.90;;;;;;4787933;30;20063;-79
2023/04/05 02:39:41;;;;;;;11.45;5.38;;;2.80;99.90;;;;;;4788074;30;20043;-79
2023/04/05 02:42:07;;;;;;;10.32;4.45;;;2.80;99.90;;;;;;4787907;29;20055;-79
2023/04/05 02:44:32;;;;;;;10.23;4.90;;;2.70;99.90;;;;;;4787834;30;20077;-79
2023/04/05 02:46:58;;;;;;;10.33;4.93;;;2.80;99.90;;;;;;4787488;29;20066;-79
2023/04/05 02:49:24;;;;;;;10.57;5.07;;;2.80;99.90;;;;;;4750459;30;1127839;-79
2023/04/05 02:51:50;;;;;;;10.07;4.93;;;2.80;99.90;;;;;;4773315;30;20453;-79
2023/04/05 02:54:16;;;;;;;13.25;5.57;;;2.80;99.90;;;;;;4789011;30;20055;-79
2023/04/05 02:56:42;;;;;;;10.90;5.33;;;2.80;99.90;;;;;;4772295;30;20466;-79
2023/04/05 02:59:08;;;;;;;9.30;4.70;;;2.70;99.90;;;;;;4788367;30;20051;-79
2023/04/05 03:01:35;;;;;;;9.50;4.93;;;2.70;99.90;;;;;;4772551;30;20050;-79
2023/04/05 03:04:01;;;;;;;9.55;5.25;;;2.70;99.90;;;;;;4772978;30;20519;-79
2023/04/05 03:06:27;;;;;;;11.25;5.50;;;2.60;99.90;;;;;;4788371;30;20133;-80
2023/04/05 03:08:54;;;;;;;11.90;5.40;;;2.50;99.90;;;;;;4788309;29;20172;-79
2023/04/05 03:11:20;;;;;;;8.40;4.80;;;2.50;99.90;;;;;;4757957;30;20047;-79
2023/04/05 03:13:46;;;;;;;11.10;5.13;;;2.50;99.90;;;;;;4772426;30;20061;-78
2023/04/05 03:16:11;;;;;;;9.53;5.27;;;2.50;99.90;;;;;;4788254;29;20090;-78
2023/04/05 03:18:37;;;;;;;10.90;5.17;;;2.50;99.90;;;;;;4773095;30;20561;-79
2023/04/05 03:21:03;;;;;;;10.05;5.88;;;2.40;99.90;;;;;;4772310;30;20054;-79
2023/04/05 03:23:30;;;;;;;11.83;5.77;;;2.50;99.90;;;;;;4788238;30;20458;-79
2023/04/05 03:26:00;;;;;;;8.18;4.93;;;2.50;99.90;;;;;;4772380;30;20062;-78
2023/04/05 03:28:26;;;;;;;12.65;5.63;;;2.50;99.90;;;;;;4788161;30;20047;-78
2023/04/05 03:30:52;;;;;;;11.60;5.63;;;2.40;99.90;;;;;;4788082;30;20504;-79
2023/04/05 03:33:19;;;;;;;10.13;5.72;;;2.40;99.90;;;;;;4788135;29;20055;-79
2023/04/05 03:35:46;;;;;;;12.27;5.55;;;2.40;99.90;;;;;;4788116;30;20059;-79
2023/04/05 03:38:11;;;;;;;7.63;4.72;;;2.50;99.90;;;;;;4788047;30;20135;-79
2023/04/05 03:40:38;;;;;;;10.50;5.13;;;2.40;99.90;;;;;;4788676;30;20055;-79
2023/04/05 03:43:03;;;;;;;9.25;5.28;;;2.50;99.90;;;;;;4772109;30;20103;-79
2023/04/05 03:45:29;;;;;;;13.10;5.87;;;2.40;99.90;;;;;;4788139;30;20141;-79
2023/04/05 03:47:56;;;;;;;11.40;5.93;;;2.40;99.90;;;;;;4788541;30;20127;-79
2023/04/05 03:50:23;;;;;;;11.73;5.95;;;2.40;99.90;;;;;;4788014;30;20476;-79
2023/04/05 03:52:49;;;;;;;9.63;5.95;;;2.40;99.90;;;;;;4788004;30;20063;-79
2023/04/05 03:55:15;;;;;;;11.45;5.80;;;2.30;99.90;;;;;;4787971;30;20083;-79
2023/04/05 03:57:42;;;;;;;9.68;5.38;;;2.30;99.90;;;;;;4787979;30;20408;-79
2023/04/05 04:00:13;;;;;;;12.05;6.18;;;2.20;99.90;;;;;;4787831;29;20535;-79
2023/04/05 04:02:43;;;;;;;13.43;5.97;;;2.20;99.90;;;;;;4789324;29;20059;-79
2023/04/05 04:05:11;;;;;;;10.57;6.18;;;2.20;99.90;;;;;;4775328;30;20055;-79
2023/04/05 04:07:37;;;;;;;12.80;5.97;;;2.20;99.90;;;;;;4791708;30;20057;-79
2023/04/05 04:10:04;;;;;;;14.27;6.37;;;2.20;99.90;;;;;;4791099;30;20051;-79
2023/04/05 04:12:30;;;;;;;14.88;6.72;;;2.10;99.90;;;;;;4791088;30;20089;-79
2023/04/05 04:14:56;;;;;;;11.50;5.90;;;2.10;99.90;;;;;;4790971;29;20087;-79
2023/04/05 04:17:29;;;;;;;12.40;6.80;;;2.10;99.90;;;;;;4791025;30;20058;-79
2023/04/05 04:19:55;;;;;;;12.35;6.10;;;2.10;99.90;;;;;;4790886;30;20062;-79
2023/04/05 04:22:22;;;;;;;13.00;6.72;;;2.10;99.90;;;;;;4790824;29;20091;-80
2023/04/05 04:24:48;;;;;;;14.00;7.38;;;2.00;99.90;;;;;;4774816;30;20130;-80
2023/04/05 04:27:18;;;;;;;14.35;7.40;;;2.00;99.90;;;;;;4774981;30;20071;-80
2023/04/05 04:29:47;;;;;;;11.25;6.38;;;2.00;99.90;;;;;;4791493;29;20047;-80
2023/04/05 04:32:16;;;;;;;12.77;6.57;;;2.00;99.90;;;;;;4790632;30;20058;-80
2023/04/05 04:34:44;;;;;;;14.10;7.00;;;1.90;99.90;;;;;;4790682;30;20130;-80
2023/04/05 04:37:17;;;;;;;13.20;7.25;;;1.90;99.90;;;;;;4790586;30;20058;-80
2023/04/05 04:39:47;;;;;;;13.48;7.50;;;2.00;99.90;;;;;;4790514;30;20055;-80
2023/04/05 04:42:18;;;;;;;13.65;6.78;;;2.00;99.90;;;;;;4790531;30;20066;-79
2023/04/05 04:44:44;;;;;;;13.80;6.72;;;2.00;99.90;;;;;;4790613;30;20055;-79
2023/04/05 04:47:16;;;;;;;13.60;6.82;;;1.80;99.90;;;;;;4775118;30;20059;-79
2023/04/05 04:49:42;;;;;;;11.27;6.95;;;1.90;99.90;;;;;;4775750;30;20511;-79
2023/04/05 04:52:08;;;;;;;13.68;6.88;;;2.20;99.90;;;;;;4791035;30;20149;-79
2023/04/05 04:54:35;;;;;;;13.77;7.75;;;2.00;99.90;;;;;;4790356;30;20051;-79
2023/04/05 04:57:01;;;;;;;12.13;6.93;;;2.00;99.90;;;;;;4791055;30;20077;-79
2023/04/05 04:59:31;;;;;;;13.07;7.47;;;2.00;99.90;;;;;;4790188;30;20055;-79
2023/04/05 05:01:57;;;;;;;13.55;7.22;;;2.00;99.90;;;;;;4790219;30;20134;-79
2023/04/05 05:04:22;;;;;;;13.03;7.40;;;2.10;99.90;;;;;;4790192;29;20200;-79
2023/04/05 05:06:52;;;;;;;13.63;7.83;;;2.00;99.90;;;;;;4774720;30;20062;-80
2023/04/05 05:09:18;;;;;;;12.13;7.35;;;1.90;99.90;;;;;;4790129;30;20447;-79
2023/04/05 05:11:44;;;;;;;14.77;7.80;;;2.00;99.90;;;;;;4790571;30;20058;-80
2023/04/05 05:14:09;;;;;;;12.70;7.17;;;2.20;99.90;;;;;;4773421;30;20110;-79
2023/04/05 05:16:35;;;;;;;17.00;8.47;;;1.90;99.90;;;;;;4774103;30;20055;-80
2023/04/05 05:19:01;;;;;;;13.27;7.40;;;1.90;99.90;;;;;;4789899;30;20059;-80
2023/04/05 05:21:27;;;;;;;13.53;8.10;;;1.90;99.90;;;;;;4789927;30;20450;-80
2023/04/05 05:23:52;;;;;;;16.37;8.17;;;2.20;99.90;;;;;;4773825;30;20134;-80
2023/04/05 05:26:18;;;;;;;15.13;8.17;;;;;;;;;;4789560;30;20047;-80
2023/04/05 05:28:45;;;;;;;14.57;7.60;;;2.00;99.90;;;;;;4789818;29;20047;-80
2023/04/05 05:31:12;;;;;;;15.35;8.38;;;2.00;99.90;;;;;;4773407;30;20489;-79
2023/04/05 05:33:38;;;;;;;15.65;8.35;;;2.00;99.90;;;;;;4790236;30;20055;-79
2023/04/05 05:36:04;;;;;;;15.10;8.73;;;2.00;99.90;;;;;;4789655;29;20055;-79
2023/04/05 05:38:30;;;;;;;14.97;7.73;;;1.90;99.90;;;;;;4789620;30;20083;-79
2023/04/05 05:40:56;;;;;;;14.33;7.87;;;1.90;99.90;;;;;;4774522;30;20822;-79
2023/04/05 05:43:22;;;;;;;15.32;9.10;;;1.90;99.90;;;;;;4789809;30;20472;-79
2023/04/05 05:45:48;;;;;;;17.50;8.40;;;2.00;99.90;;;;;;4789935;29;20134;-79
2023/04/05 05:48:14;;;;;;;15.57;9.27;;;1.90;99.90;;;;;;4773583;30;20116;-79
2023/04/05 05:50:40;;;;;;;13.32;8.55;;;2.00;99.90;;;;;;4772829;30;20070;-79
2023/04/05 05:53:06;;;;;;;15.23;9.30;;;2.00;99.90;;;;;;4789291;30;20063;-79
2023/04/05 05:55:32;;;;;;;16.27;8.90;;;2.10;99.90;;;;;;4789258;30;20130;-79
2023/04/05 05:57:58;;;;;;;16.13;9.43;;;2.10;99.90;;;;;;4773317;30;20066;-79
2023/04/05 06:00:24;;;;;;;15.27;9.93;;;2.20;99.90;;;;;;4789430;30;20755;-80
2023/04/05 06:02:51;;;;;;;19.00;9.40;;;2.20;99.90;;;;;;4789273;30;20134;-80
2023/04/05 06:05:17;;;;;;;17.30;9.48;;;2.30;99.90;;;;;;4772939;30;20047;-79
2023/04/05 06:07:42;;;;;;;13.70;8.60;;;2.40;99.90;;;;;;4789113;30;20047;-79
2023/04/05 06:10:08;;;;;;;15.93;9.70;;;2.50;99.90;;;;;;4789096;29;20043;-79
2023/04/05 06:12:34;;;;;;;15.80;10.15;;;2.60;99.90;;;;;;4773916;30;20193;-79
2023/04/05 06:15:01;;;;;;;16.03;9.03;;;2.90;99.90;;;;;;4788951;30;20134;-79
2023/04/05 06:17:27;;;;;;;16.85;10.57;;;4.00;99.90;;;;;;4789462;30;20050;-79
2023/04/05 06:19:53;;;;;;;14.45;9.65;;;5.40;99.90;;;;;;4772967;30;20197;-79
2023/04/05 06:22:18;;;;;;;15.73;9.73;;;6.70;99.90;;;;;;4788888;30;20137;-79
2023/04/05 06:24:44;;;;;;;13.60;9.03;;;7.90;99.90;;;;;;4788598;30;20148;-78
2023/04/05 06:27:13;;;;;;;14.07;8.93;;;8.80;99.90;;;;;;4788838;29;20503;-84
2023/04/05 06:29:39;;;;;;;17.58;9.10;;;9.80;99.90;;;;;;4788790;29;20055;-85
2023/04/05 06:32:05;;;;;;;17.67;8.57;;;10.30;99.90;;;;;;4758147;30;20058;-84
2023/04/05 06:34:30;;;;;;;14.27;7.90;;;10.70;98.80;;;;;;4788770;30;20134;-85
2023/04/05 06:36:57;;;;;;;12.63;8.53;;;11.20;96.00;;;;;;4788616;29;20055;-76
2023/04/05 06:39:23;;;;;;;11.80;8.13;;;11.60;94.90;;;;;;4788583;30;20091;-77
2023/04/05 06:41:48;;;;;;;11.57;8.10;;;12.20;93.50;;;;;;4789139;30;20769;-77
2023/04/05 06:44:14;;;;;;;16.23;9.93;;;12.60;85.10;;;;;;4788576;29;20059;-77
2023/04/05 06:46:40;;;;;;;12.67;8.57;;;13.00;82.40;;;;;;4757616;30;20051;-77
2023/04/05 06:49:06;;;;;;;15.87;9.20;;;13.20;81.10;;;;;;4788051;30;20051;-81
2023/04/05 06:51:31;;;;;;;14.13;8.23;;;13.80;77.40;;;;;;4789042;30;20059;-82
2023/04/05 06:53:57;;;;;;;12.73;8.33;;;14.20;69.00;;;;;;4788414;29;20051;-79
2023/04/05 06:56:23;;;;;;;14.63;8.47;;;14.50;70.10;;;;;;4788368;29;20059;-78
2023/04/05 06:58:49;;;;;;;14.27;9.20;;;14.50;67.10;;;;;;4788447;29;20051;-81
2023/04/05 07:01:16;;;;;;;13.00;8.30;;;14.40;62.60;;;;;;4788642;29;20067;-78
2023/04/05 07:03:42;;;;;;;13.73;9.40;;;14.70;61.60;;;;;;4788948;30;20372;-78
2023/04/05 07:06:08;;;;;;;11.53;8.20;;;15.00;59.40;;;;;;4772456;30;20483;-78
2023/04/05 07:08:34;;;;;;;13.83;8.47;;;15.20;55.80;;;;;;4788387;30;20047;-80
2023/04/05 07:11:00;;;;;;;13.00;8.70;;;15.40;55.90;;;;;;4772487;30;20303;-79
2023/04/05 07:13:26;;;;;;;12.60;9.03;;;15.60;56.20;;;;;;4789092;30;20067;-79
2023/04/05 07:15:58;;;;;;;12.13;8.53;;;16.00;46.70;;;;;;4772491;30;20843;-79
2023/04/05 07:18:24;;;;;;;13.33;8.57;;;16.10;54.40;;;;;;4788789;30;20342;-81
2023/04/05 07:20:50;;;;;;;10.07;8.13;;;16.60;53.40;;;;;;4788298;30;20301;-83
2023/04/05 07:23:16;;;;;;;13.23;8.50;;;;;;;;;;4788231;29;20059;-82
2023/04/05 07:25:43;;;;;;;10.63;7.67;;;17.30;51.00;;;;;;4788491;30;20051;-82
2023/04/05 07:28:08;;;;;;;11.83;7.80;;;18.00;51.70;;;;;;4788700;29;20051;-82
2023/04/05 07:30:35;;;;;;;11.67;8.30;;;;;;;;;;4772431;30;20109;-82
2023/04/05 07:33:01;;;;;;;12.83;8.80;;;17.80;48.30;;;;;;4788124;29;20052;-82
2023/04/05 07:35:27;;;;;;;11.60;7.93;;;18.10;49.90;;;;;;4788098;30;20047;-82
2023/04/05 07:37:53;;;;;;;14.90;8.90;;;18.30;49.40;;;;;;4774766;30;20051;-82
2023/04/05 07:40:18;;;;;;;12.53;7.80;;;18.40;47.90;;;;;;4791483;30;20053;-82
2023/04/05 07:42:44;;;;;;;9.67;7.40;;;18.60;48.20;;;;;;4792029;30;20504;-82
2023/04/05 07:45:10;;;;;;;9.70;7.60;;;18.40;47.00;;;;;;4791465;30;20047;-83
2023/04/05 07:47:36;;;;;;;12.57;7.93;;;18.10;46.70;;;;;;4791945;30;20051;-83
2023/04/05 07:50:02;;;;;;;10.57;8.23;;;17.80;46.20;;;;;;4791315;29;20516;-83
2023/04/05 07:52:28;;;;;;;9.27;7.40;;;17.50;47.60;;;;;;4791416;30;20063;-82
2023/04/05 07:54:54;;;;;;;11.23;7.67;;;16.60;47.70;;;;;;4775535;30;20568;-82
2023/04/05 07:57:21;;;;;;;11.83;8.10;;;15.30;48.20;;;;;;4760639;30;20055;-82
2023/04/05 07:59:49;;;;;;;11.20;8.27;;;14.20;49.10;;;;;;4791218;30;20090;-82
2023/04/05 08:02:15;;;;;;;11.33;7.50;;;13.30;50.10;;;;;;4791759;29;20112;-82
2023/04/05 08:04:41;;;;;;;9.43;7.23;;;12.50;51.10;;;;;;4791214;30;20516;-82
2023/04/05 08:07:07;;;;;;;9.07;7.03;;;11.90;52.00;;;;;;4791648;30;20055;-81
2023/04/05 08:09:34;;;;;;;10.43;7.30;;;11.30;53.10;;;;;;4791126;30;20087;-83
2023/04/05 08:12:01;;;;;;;10.80;6.93;;;11.00;53.50;;;;;;4775682;30;20063;-80
2023/04/05 08:14:27;;;;;;;9.87;6.70;;;10.70;53.80;;;;;;4775137;30;20797;-83
2023/04/05 08:16:53;;;;;;;10.93;6.83;;;10.40;54.60;;;;;;4790998;30;20315;-82
2023/04/05 08:19:18;;;;;;;12.70;7.83;;;10.20;55.00;;;;;;4760839;30;20457;-83
2023/04/05 08:21:44;;;;;;;11.40;6.97;;;10.10;56.30;;;;;;4790959;30;20059;-83
2023/04/05 08:24:10;;;;;;;11.80;7.17;;;10.00;57.00;;;;;;4774725;30;20044;-81
2023/04/05 08:26:36;;;;;;;11.33;6.93;;;9.90;57.90;;;;;;4774772;30;20051;-82
2023/04/05 08:29:01;;;;;;;9.33;6.43;;;10.00;58.20;;;;;;4774957;30;20120;-81
2023/04/05 08:31:28;;;;;;;10.70;6.53;;;9.80;58.60;;;;;;4775104;30;20138;-82
2023/04/05 08:33:53;;;;;;;11.57;7.10;;;9.80;59.70;;;;;;4774485;30;20347;-83
2023/04/05 08:36:19;;;;;;;10.97;6.93;;;9.80;60.50;;;;;;4790342;30;20407;-81
2023/04/05 08:38:45;;;;;;;10.43;7.17;;;9.90;60.50;;;;;;4774474;30;20112;-82
2023/04/05 08:41:10;;;;;;;11.43;7.50;;;9.80;61.00;;;;;;4774595;30;20051;-81
2023/04/05 08:43:43;;;;;;;8.93;6.10;;;9.70;60.50;;;;;;4790808;30;20097;-81
2023/04/05 08:46:15;;;;;;;10.70;6.37;;;9.50;61.10;;;;;;4774920;30;20052;-81
2023/04/05 08:48:41;;;;;;;11.00;7.30;;;9.30;60.60;;;;;;4790255;29;20292;-81
2023/04/05 08:51:08;;;;;;;11.23;6.57;;;9.20;60.90;;;;;;4790384;29;20305;-82
2023/04/05 08:53:34;;;;;;;11.93;7.20;;;9.20;61.50;;;;;;4790529;30;20493;-81
2023/04/05 08:56:02;;;;;;;10.63;6.70;;;9.20;62.60;;;;;;4790382;30;20765;-81
2023/04/05 08:58:30;;;;;;;9.53;7.03;;;9.10;61.90;;;;;;4759473;30;20313;-79
2023/04/05 09:00:57;;;;;;;12.13;6.77;;;9.10;62.70;;;;;;4790512;29;20311;-78
2023/04/05 09:03:33;;;;;;;11.00;6.93;;;9.10;63.30;;;;;;4774113;30;20289;-80
2023/04/05 09:05:59;;;;;;;12.63;7.00;;;9.10;64.20;;;;;;4790574;30;20281;-79
2023/04/05 09:08:26;;;;;;;10.60;7.03;;;9.00;66.20;;;;;;4790108;29;20285;-74
2023/04/05 09:10:51;;;;;;;10.63;6.87;;;8.90;65.60;;;;;;4790189;30;20295;-79
2023/04/05 09:13:18;;;;;;;11.67;7.73;;;8.90;69.00;;;;;;4790136;30;20281;-80
2023/04/05 09:15:45;;;;;;;12.20;7.17;;;8.80;68.40;;;;;;4789941;30;20058;-77
2023/04/05 09:18:11;;;;;;;10.97;6.77;;;8.90;68.60;;;;;;4773888;30;20756;-78
2023/04/05 09:20:37;;;;;;;11.47;6.90;;;8.90;67.20;;;;;;4759290;30;20289;-79
2023/04/05 09:23:03;;;;;;;10.43;6.37;;;8.90;67.70;;;;;;4789972;29;20051;-80
2023/04/05 09:25:31;;;;;;;12.90;6.63;;;9.00;67.70;;;;;;4774147;30;20059;-78
2023/04/05 09:28:02;;;;;;;11.03;6.83;;;9.10;67.60;;;;;;4774062;30;20476;-78
2023/04/05 09:30:27;;;;;;;12.77;6.30;;;9.20;66.70;;;;;;4774714;30;20297;-81
2023/04/05 09:32:54;;;;;;;10.23;5.30;;;9.30;66.40;;;;;;4789831;29;20289;-81
2023/04/05 09:35:25;;;;;;;9.23;5.53;;;9.30;65.30;;;;;;4789796;30;20058;-80
2023/04/05 09:37:52;;;;;;;9.60;5.30;;;9.20;62.00;;;;;;4789724;30;20289;-80
2023/04/05 09:40:18;;;;;;;8.93;5.20;;;9.10;63.60;;;;;;4789559;29;20301;-81
2023/04/05 09:42:45;;;;;;;9.13;4.87;;;9.20;64.00;;;;;;4790125;30;20350;-82
2023/04/05 09:45:12;;;;;;;12.77;5.77;;;9.20;64.30;;;;;;4789595;30;20301;-81
2023/04/05 09:47:38;;;;;;;7.50;4.90;;;9.20;63.10;;;;;;4790207;29;20341;-80
2023/04/05 09:50:15;;;;;;;9.67;5.60;;;9.20;63.50;;;;;;4789235;30;20769;-80
2023/04/05 09:52:42;;;;;;;9.40;5.33;;;9.10;61.60;;;;;;4773442;30;20059;-80
2023/04/05 09:55:09;;;;;;;9.37;5.67;;;9.20;64.10;;;;;;4789379;30;20296;-77
2023/04/05 09:57:40;;;;;;;9.37;6.23;;;9.20;63.90;;;;;;4789384;30;20289;-80
2023/04/05 10:00:16;;;;;;;10.37;5.73;;;9.20;62.70;;;;;;4789442;29;20312;-79
2023/04/05 10:02:42;;;;;;;9.83;5.70;;;9.10;63.00;;;;;;4788991;30;20383;-80
2023/04/05 10:05:15;;;;;;;9.10;5.83;;;9.10;63.90;;;;;;4789284;30;20507;-79
2023/04/05 10:07:41;;;;;;;8.83;5.50;;;9.20;63.20;;;;;;4789811;30;20142;-79
2023/04/05 10:10:09;;;;;;;8.70;5.20;;;9.20;62.60;;;;;;4789195;29;20285;-80
2023/04/05 10:12:38;;;;;;;9.13;5.23;;;9.20;63.20;;;;;;4789332;30;20762;-80
2023/04/05 10:15:05;;;;;;;9.77;5.27;;;9.20;64.00;;;;;;4789131;30;20295;-80
2023/04/05 10:17:41;;;;;;;8.40;4.97;;;9.30;64.30;;;;;;4789541;30;20293;-81
2023/04/05 10:20:17;;;;;;;9.37;5.40;;;9.30;62.30;;;;;;4789475;30;20308;-80
2023/04/05 10:23:13;;;;;;;11.00;6.20;;;9.40;63.70;;;;;;4789196;30;20285;-79
2023/04/05 10:25:51;;;;;;;8.60;5.28;;;9.40;62.20;;;;;;4789695;30;20292;-80
2023/04/05 10:28:34;;;;;;;7.13;4.60;;;9.40;58.40;;;;;;4788857;30;20196;-78
2023/04/05 10:31:25;;;;;;;8.13;5.27;;;9.30;59.60;;;;;;4773791;30;20353;-81
2023/04/05 10:34:07;;;;;;;8.67;5.47;;;9.30;59.00;;;;;;4789043;29;20296;-80
2023/04/05 10:36:44;;;;;;;8.70;5.00;;;9.30;60.30;;;;;;4788515;30;20793;-81
2023/04/05 10:39:32;;;;;;;7.37;4.40;;;9.40;61.10;;;;;;4788739;30;20782;-82
2023/04/05 10:42:12;;;;;;;10.80;4.93;;;9.40;59.10;;;;;;4788796;30;20333;-80
2023/04/05 10:44:39;;;;;;;8.57;5.70;;;9.40;60.10;;;;;;4788723;30;20830;-81
2023/04/05 10:47:07;;;;;;;7.63;5.13;;;9.50;60.10;;;;;;4789426;30;20289;-82
2023/04/05 10:49:39;;;;;;;9.00;5.53;;;9.40;60.30;;;;;;4789367;30;20604;-81
2023/04/05 10:52:05;;;;;;;8.73;5.47;;;9.40;60.40;;;;;;4789081;29;20361;-81
2023/04/05 10:54:35;;;;;;;10.33;5.30;;;9.50;60.10;;;;;;4772578;30;20304;-82
2023/04/05 10:57:07;;;;;;;8.53;4.87;;;9.40;59.10;;;;;;4772713;30;20331;-78
2023/04/05 10:59:34;;;;;;;9.27;4.47;;;9.40;59.70;;;;;;4788430;30;20313;-78
2023/04/05 11:02:01;;;;;;;7.07;4.47;;;9.50;59.50;;;;;;4772917;30;20333;-76
2023/04/05 11:04:27;;;;;;;9.73;4.97;;;9.50;59.30;;;;;;4788483;30;20285;-81
2023/04/05 11:07:25;;;;;;;11.07;5.00;;;9.60;59.10;;;;;;4788729;29;20288;-83
2023/04/05 11:10:02;;;;;;;8.00;5.10;;;9.60;58.10;;;;;;4748848;30;20568;-83
2023/04/05 11:12:45;;;;;;;8.63;5.30;;;9.70;59.20;;;;;;4791587;30;20289;-80
2023/04/05 11:15:26;;;;;;;9.67;5.70;;;9.70;58.90;;;;;;4777096;30;20358;-79
2023/04/05 11:18:04;;;;;;;9.47;5.37;;;9.70;59.50;;;;;;4792174;29;20297;-82
2023/04/05 11:20:42;;;;;;;12.90;5.90;;;9.70;58.90;;;;;;4792496;29;20638;-80
2023/04/05 11:23:17;;;;;;;9.63;5.83;;;9.80;59.40;;;;;;4791708;30;20642;-86
2023/04/05 11:25:56;;;;;;;8.55;5.70;;;9.80;59.90;;;;;;4792054;30;20346;-86
2023/04/05 11:28:24;;;;;;;8.40;4.87;;;9.70;59.40;;;;;;4792746;30;20102;-86
2023/04/05 11:30:51;;;;;;;8.77;4.97;;;9.70;59.40;;;;;;4791942;30;20322;-85
2023/04/05 11:33:36;;;;;;;9.23;5.07;;;9.80;60.10;;;;;;4791848;30;20300;-83
2023/04/05 11:36:03;;;;;;;9.38;4.97;;;9.80;59.40;;;;;;4791836;30;20692;-83
2023/04/05 11:38:29;;;;;;;8.73;5.03;;;9.90;59.60;;;;;;4792183;30;20058;-86
2023/04/05 11:41:31;;;;;;;10.73;5.10;;;9.90;59.20;;;;;;4791692;30;20292;-84
2023/04/05 11:43:57;;;;;;;8.00;5.43;;;10.00;57.70;;;;;;4779618;30;20066;-81
2023/04/05 11:46:31;;;;;;;9.10;5.03;;;10.00;59.00;;;;;;4791692;30;20293;-86
2023/04/05 11:48:57;;;;;;;10.53;5.03;;;10.00;58.10;;;;;;4792420;30;20313;-82
2023/04/05 11:51:24;;;;;;;9.93;4.93;;;10.00;57.30;;;;;;4791018;29;20790;-82
2023/04/05 11:53:50;;;;;;;9.37;4.10;;;10.00;57.70;;;;;;4761129;30;20401;-82
2023/04/05 11:56:15;;;;;;;9.03;5.07;;;10.00;58.10;;;;;;4792337;30;20296;-85
2023/04/05 11:58:41;;;;;;;7.97;4.60;;;10.00;57.20;;;;;;4775468;30;20078;-85
2023/04/05 12:01:08;;;;;;;7.30;4.97;;;10.00;57.00;;;;;;4791380;30;20463;-84
2023/04/05 12:03:35;;;;;;;13.40;4.87;;;10.00;57.40;;;;;;4791045;30;20497;-84
2023/04/05 12:06:03;;;;;;;11.10;5.70;;;9.90;56.80;;;;;;4775135;30;20297;-83
2023/04/05 12:08:52;;;;;;;7.67;4.80;;;9.90;57.70;;;;;;4775846;30;20324;-86
2023/04/05 12:11:29;;;;;;;8.27;4.83;;;9.90;55.10;;;;;;4775677;30;20297;-84
2023/04/05 12:14:00;;;;;;;8.27;4.50;;;9.90;56.40;;;;;;4791749;30;20277;-86
2023/04/05 12:16:27;;;;;;;7.73;4.90;;;9.90;57.20;;;;;;4791024;29;20285;-80
2023/04/05 12:18:55;;;;;;;8.77;4.47;;;9.90;56.40;;;;;;4790959;29;20774;-79
2023/04/05 12:21:22;;;;;;;8.63;4.93;;;9.90;56.30;;;;;;4775213;30;20292;-79
2023/04/05 12:23:49;;;;;;;9.77;5.63;;;10.00;56.80;;;;;;4774765;30;20301;-82
2023/04/05 12:26:15;;;;;;;9.03;4.33;;;10.00;56.80;;;;;;4790895;30;20380;-82
2023/04/05 12:28:55;;;;;;;10.47;5.07;;;10.00;56.80;;;;;;4790835;29;20372;-81
2023/04/05 12:31:40;;;;;;;9.23;5.77;;;10.00;57.50;;;;;;4790822;30;20396;-82
2023/04/05 12:34:06;;;;;;;7.85;4.25;;;10.00;55.20;;;;;;4774627;30;20301;-81
2023/04/05 12:36:32;;;;;;;10.03;5.20;;;10.00;56.60;;;;;;4790869;29;20059;-81
2023/04/05 12:38:59;;;;;;;8.20;4.77;;;10.00;57.20;;;;;;4775490;30;20369;-81
2023/04/05 12:41:29;;;;;;;9.17;4.80;;;10.00;57.50;;;;;;4790702;29;20138;-81
2023/04/05 12:44:00;;;;;;;7.27;4.87;;;10.00;57.50;;;;;;4790726;30;20321;-82
2023/04/05 12:46:43;;;;;;;8.20;4.90;;;10.00;56.80;;;;;;4791473;30;20285;-77
2023/04/05 12:49:11;;;;;;;8.73;4.60;;;10.00;56.20;;;;;;4791107;30;20295;-76
2023/04/05 12:51:41;;;;;;;9.23;5.00;;;10.00;57.20;;;;;;4790443;30;20293;-76
2023/04/05 12:54:07;;;;;;;9.50;4.93;;;10.00;57.30;;;;;;4774939;30;20370;-76
2023/04/05 12:56:33;;;;;;;8.97;4.93;;;10.10;57.30;;;;;;4790779;30;20758;-76